sensor_id;sensor_type;location;lat;lon;timestamp;pressure;altitude;pressure_sealevel;temperature;humidity
5753;BME280;2901;42.140;24.760;2024-01-30T00:00:07;101673.06;;;3.45;68.89
5753;BME280;2901;42.140;24.760;2024-01-30T00:02:33;101661.59;;;3.38;69.76
5753;BME280;2901;42.140;24.760;2024-01-30T00:04:58;101671.47;;;3.47;69.12
5753;BME280;2901;42.140;24.760;2024-01-30T00:07:24;101675.69;;;3.46;68.93
5753;BME280;2901;42.140;24.760;2024-01-30T00:09:49;101665.56;;;3.48;68.83
5753;BME280;2901;42.140;24.760;2024-01-30T00:12:15;101674.00;;;3.47;69.08
5753;BME280;2901;42.140;24.760;2024-01-30T00:14:43;101673.06;;;3.45;69.55
5753;BME280;2901;42.140;24.760;2024-01-30T00:17:09;101674.19;;;3.50;68.89
5753;BME280;2901;42.140;24.760;2024-01-30T00:19:34;101677.63;;;3.50;69.16
5753;BME280;2901;42.140;24.760;2024-01-30T00:22:00;101683.81;;;3.54;69.46
5753;BME280;2901;42.140;24.760;2024-01-30T00:24:25;101674.47;;;3.54;69.31
5753;BME280;2901;42.140;24.760;2024-01-30T00:26:51;101671.97;;;3.56;68.80
5753;BME280;2901;42.140;24.760;2024-01-30T00:29:17;101678.41;;;3.64;68.28
5753;BME280;2901;42.140;24.760;2024-01-30T00:31:47;101681.94;;;3.66;67.79
5753;BME280;2901;42.140;24.760;2024-01-30T00:34:13;101678.47;;;3.65;68.34
5753;BME280;2901;42.140;24.760;2024-01-30T00:36:38;101674.97;;;3.63;68.49
5753;BME280;2901;42.140;24.760;2024-01-30T00:39:04;101668.63;;;3.57;68.67
5753;BME280;2901;42.140;24.760;2024-01-30T00:41:34;101674.47;;;3.54;68.88
5753;BME280;2901;42.140;24.760;2024-01-30T00:43:59;101676.41;;;3.58;68.64
5753;BME280;2901;42.140;24.760;2024-01-30T00:46:25;101683.81;;;3.54;68.70
5753;BME280;2901;42.140;24.760;2024-01-30T00:48:50;101680.03;;;3.47;68.72
5753;BME280;2901;42.140;24.760;2024-01-30T00:51:15;101681.88;;;3.50;68.69
5753;BME280;2901;42.140;24.760;2024-01-30T00:53:41;101686.22;;;3.51;68.71
5753;BME280;2901;42.140;24.760;2024-01-30T00:56:09;101679.47;;;3.53;68.36
5753;BME280;2901;42.140;24.760;2024-01-30T00:58:34;101677.56;;;3.49;68.90
5753;BME280;2901;42.140;24.760;2024-01-30T01:01:00;101678.41;;;3.49;68.73
5753;BME280;2901;42.140;24.760;2024-01-30T01:03:25;101676.56;;;3.47;68.82
5753;BME280;2901;42.140;24.760;2024-01-30T01:05:50;101674.63;;;3.43;68.75
5753;BME280;2901;42.140;24.760;2024-01-30T01:08:16;101679.84;;;3.44;69.20
5753;BME280;2901;42.140;24.760;2024-01-30T01:10:41;101672.72;;;3.39;69.04
5753;BME280;2901;42.140;24.760;2024-01-30T01:13:07;101681.97;;;3.37;68.73
5753;BME280;2901;42.140;24.760;2024-01-30T01:15:32;101670.59;;;3.32;69.34
5753;BME280;2901;42.140;24.760;2024-01-30T01:17:57;101673.22;;;3.33;69.81
5753;BME280;2901;42.140;24.760;2024-01-30T01:20:23;101670.78;;;3.35;69.39
5753;BME280;2901;42.140;24.760;2024-01-30T01:22:48;101662.47;;;3.39;68.82
5753;BME280;2901;42.140;24.760;2024-01-30T01:25:14;101668.66;;;3.42;68.90
5753;BME280;2901;42.140;24.760;2024-01-30T01:27:40;101661.03;;;3.44;68.63
5753;BME280;2901;42.140;24.760;2024-01-30T01:30:10;101654.16;;;3.43;68.57
5753;BME280;2901;42.140;24.760;2024-01-30T01:32:37;101653.19;;;3.41;68.30
5753;BME280;2901;42.140;24.760;2024-01-30T01:35:03;101652.13;;;3.37;68.13
5753;BME280;2901;42.140;24.760;2024-01-30T01:37:31;101644.38;;;3.36;68.52
5753;BME280;2901;42.140;24.760;2024-01-30T01:39:56;101643.03;;;3.28;68.19
5753;BME280;2901;42.140;24.760;2024-01-30T01:42:21;101650.91;;;3.31;68.30
5753;BME280;2901;42.140;24.760;2024-01-30T01:44:47;101649.94;;;3.29;68.27
5753;BME280;2901;42.140;24.760;2024-01-30T01:47:13;101655.94;;;3.14;69.09
5753;BME280;2901;42.140;24.760;2024-01-30T01:49:39;101652.44;;;3.12;69.41
5753;BME280;2901;42.140;24.760;2024-01-30T01:52:05;101650.81;;;3.14;69.96
5753;BME280;2901;42.140;24.760;2024-01-30T01:54:31;101647.13;;;3.09;71.28
5753;BME280;2901;42.140;24.760;2024-01-30T01:56:57;101656.03;;;3.01;72.13
5753;BME280;2901;42.140;24.760;2024-01-30T01:59:23;101654.88;;;2.96;72.80
5753;BME280;2901;42.140;24.760;2024-01-30T02:01:49;101658.06;;;2.92;72.99
5753;BME280;2901;42.140;24.760;2024-01-30T02:04:16;101660.34;;;2.88;73.62
5753;BME280;2901;42.140;24.760;2024-01-30T02:06:43;101663.84;;;2.90;73.80
5753;BME280;2901;42.140;24.760;2024-01-30T02:09:08;101659.44;;;2.87;73.92
5753;BME280;2901;42.140;24.760;2024-01-30T02:11:34;101661.13;;;2.87;74.10
5753;BME280;2901;42.140;24.760;2024-01-30T02:14:03;101658.91;;;2.78;75.02
5753;BME280;2901;42.140;24.760;2024-01-30T02:16:29;101665.06;;;2.67;75.27
5753;BME280;2901;42.140;24.760;2024-01-30T02:18:55;101657.44;;;2.54;75.83
5753;BME280;2901;42.140;24.760;2024-01-30T02:21:20;101655.03;;;2.42;76.58
5753;BME280;2901;42.140;24.760;2024-01-30T02:23:49;101658.13;;;2.37;77.66
5753;BME280;2901;42.140;24.760;2024-01-30T02:26:15;101659.13;;;2.26;77.87
5753;BME280;2901;42.140;24.760;2024-01-30T02:28:41;101655.22;;;2.18;78.54
5753;BME280;2901;42.140;24.760;2024-01-30T02:31:06;101659.88;;;2.10;78.88
5753;BME280;2901;42.140;24.760;2024-01-30T02:33:32;101672.84;;;2.00;80.07
5753;BME280;2901;42.140;24.760;2024-01-30T02:35:57;101672.97;;;1.75;82.15
5753;BME280;2901;42.140;24.760;2024-01-30T02:38:23;101690.28;;;1.66;83.64
5753;BME280;2901;42.140;24.760;2024-01-30T02:40:49;101688.69;;;1.55;84.24
5753;BME280;2901;42.140;24.760;2024-01-30T02:43:15;101689.88;;;1.47;84.53
5753;BME280;2901;42.140;24.760;2024-01-30T02:45:41;101680.63;;;1.36;85.50
5753;BME280;2901;42.140;24.760;2024-01-30T02:48:06;101681.09;;;1.17;87.19
5753;BME280;2901;42.140;24.760;2024-01-30T02:50:32;101681.97;;;1.04;87.69
5753;BME280;2901;42.140;24.760;2024-01-30T02:52:57;101684.88;;;0.97;88.84
5753;BME280;2901;42.140;24.760;2024-01-30T02:55:23;101687.50;;;0.86;89.87
5753;BME280;2901;42.140;24.760;2024-01-30T02:57:48;101685.75;;;0.85;90.35
5753;BME280;2901;42.140;24.760;2024-01-30T03:00:13;101685.94;;;0.88;91.08
5753;BME280;2901;42.140;24.760;2024-01-30T03:02:39;101681.63;;;0.87;90.81
5753;BME280;2901;42.140;24.760;2024-01-30T03:05:05;101690.47;;;0.92;90.75
5753;BME280;2901;42.140;24.760;2024-01-30T03:07:31;101690.00;;;0.97;91.08
5753;BME280;2901;42.140;24.760;2024-01-30T03:09:57;101676.34;;;0.97;90.26
5753;BME280;2901;42.140;24.760;2024-01-30T03:12:22;101693.66;;;1.14;89.88
5753;BME280;2901;42.140;24.760;2024-01-30T03:14:48;101698.59;;;1.24;89.68
5753;BME280;2901;42.140;24.760;2024-01-30T03:17:14;101693.50;;;1.37;89.34
5753;BME280;2901;42.140;24.760;2024-01-30T03:19:40;101697.72;;;1.50;88.98
5753;BME280;2901;42.140;24.760;2024-01-30T03:22:06;101692.94;;;1.54;88.44
5753;BME280;2901;42.140;24.760;2024-01-30T03:24:31;101682.03;;;1.57;88.02
5753;BME280;2901;42.140;24.760;2024-01-30T03:26:56;101676.16;;;1.58;87.60
5753;BME280;2901;42.140;24.760;2024-01-30T03:29:22;101674.75;;;1.63;87.81
5753;BME280;2901;42.140;24.760;2024-01-30T03:31:47;101672.00;;;1.60;87.22
5753;BME280;2901;42.140;24.760;2024-01-30T03:34:12;101678.09;;;1.62;85.47
5753;BME280;2901;42.140;24.760;2024-01-30T03:36:38;101671.69;;;1.55;85.63
5753;BME280;2901;42.140;24.760;2024-01-30T03:39:03;101676.41;;;1.49;85.82
5753;BME280;2901;42.140;24.760;2024-01-30T03:41:29;101680.94;;;1.40;86.08
5753;BME280;2901;42.140;24.760;2024-01-30T03:43:54;101662.50;;;1.31;86.80
5753;BME280;2901;42.140;24.760;2024-01-30T03:46:19;101688.50;;;1.52;87.34
5753;BME280;2901;42.140;24.760;2024-01-30T03:48:45;101684.97;;;1.50;87.99
5753;BME280;2901;42.140;24.760;2024-01-30T03:51:11;101675.84;;;1.53;88.05
5753;BME280;2901;42.140;24.760;2024-01-30T03:53:41;101675.34;;;1.59;88.44
5753;BME280;2901;42.140;24.760;2024-01-30T03:56:07;101670.81;;;1.55;88.07
5753;BME280;2901;42.140;24.760;2024-01-30T03:58:33;101673.09;;;1.50;88.58
5753;BME280;2901;42.140;24.760;2024-01-30T04:00:58;101670.34;;;1.47;88.72
5753;BME280;2901;42.140;24.760;2024-01-30T04:03:24;101665.13;;;1.33;89.55
5753;BME280;2901;42.140;24.760;2024-01-30T04:05:49;101676.72;;;1.41;89.53
5753;BME280;2901;42.140;24.760;2024-01-30T04:08:15;101684.84;;;1.35;90.09
5753;BME280;2901;42.140;24.760;2024-01-30T04:10:40;101684.19;;;1.38;90.23
5753;BME280;2901;42.140;24.760;2024-01-30T04:13:05;101683.97;;;1.22;90.42
5753;BME280;2901;42.140;24.760;2024-01-30T04:15:31;101678.03;;;1.10;91.04
5753;BME280;2901;42.140;24.760;2024-01-30T04:17:59;101683.47;;;0.89;91.85
5753;BME280;2901;42.140;24.760;2024-01-30T04:20:25;101675.19;;;0.67;92.16
5753;BME280;2901;42.140;24.760;2024-01-30T04:22:50;101680.75;;;0.62;92.93
5753;BME280;2901;42.140;24.760;2024-01-30T04:25:16;101683.31;;;0.62;93.27
5753;BME280;2901;42.140;24.760;2024-01-30T04:27:42;101672.00;;;0.58;93.26
5753;BME280;2901;42.140;24.760;2024-01-30T04:30:07;101681.72;;;0.64;93.97
5753;BME280;2901;42.140;24.760;2024-01-30T04:32:33;101679.19;;;0.64;93.57
5753;BME280;2901;42.140;24.760;2024-01-30T04:34:58;101663.53;;;0.46;93.54
5753;BME280;2901;42.140;24.760;2024-01-30T04:37:24;101684.00;;;0.59;93.86
5753;BME280;2901;42.140;24.760;2024-01-30T04:39:49;101693.78;;;0.66;94.00
5753;BME280;2901;42.140;24.760;2024-01-30T04:42:15;101686.25;;;0.68;93.91
5753;BME280;2901;42.140;24.760;2024-01-30T04:44:40;101690.00;;;0.73;93.66
5753;BME280;2901;42.140;24.760;2024-01-30T04:47:05;101700.78;;;0.69;93.36
5753;BME280;2901;42.140;24.760;2024-01-30T04:49:34;101709.75;;;0.75;93.28
5753;BME280;2901;42.140;24.760;2024-01-30T04:51:59;101711.94;;;0.82;93.30
5753;BME280;2901;42.140;24.760;2024-01-30T04:54:25;101705.41;;;0.74;93.11
5753;BME280;2901;42.140;24.760;2024-01-30T04:56:51;101701.56;;;0.68;93.17
5753;BME280;2901;42.140;24.760;2024-01-30T04:59:16;101709.75;;;0.75;92.80
5753;BME280;2901;42.140;24.760;2024-01-30T05:01:41;101707.19;;;0.75;92.62
5753;BME280;2901;42.140;24.760;2024-01-30T05:04:07;101709.69;;;0.62;92.97
5753;BME280;2901;42.140;24.760;2024-01-30T05:06:33;101708.31;;;0.67;92.71
5753;BME280;2901;42.140;24.760;2024-01-30T05:08:58;101707.44;;;0.67;92.78
5753;BME280;2901;42.140;24.760;2024-01-30T05:11:24;101706.75;;;0.69;92.13
5753;BME280;2901;42.140;24.760;2024-01-30T05:13:49;101687.03;;;0.67;92.21
5753;BME280;2901;42.140;24.760;2024-01-30T05:16:14;101722.81;;;0.93;92.07
5753;BME280;2901;42.140;24.760;2024-01-30T05:18:40;101717.75;;;1.06;91.12
5753;BME280;2901;42.140;24.760;2024-01-30T05:21:05;101715.63;;;1.12;91.00
5753;BME280;2901;42.140;24.760;2024-01-30T05:23:31;101713.50;;;1.18;90.17
5753;BME280;2901;42.140;24.760;2024-01-30T05:25:57;101715.19;;;1.31;89.62
5753;BME280;2901;42.140;24.760;2024-01-30T05:28:22;101713.53;;;1.31;89.80
5753;BME280;2901;42.140;24.760;2024-01-30T05:30:47;101711.84;;;1.32;89.86
5753;BME280;2901;42.140;24.760;2024-01-30T05:33:13;101704.41;;;1.35;89.76
5753;BME280;2901;42.140;24.760;2024-01-30T05:35:38;101705.66;;;1.28;89.44
5753;BME280;2901;42.140;24.760;2024-01-30T05:38:04;101701.72;;;1.20;89.64
5753;BME280;2901;42.140;24.760;2024-01-30T05:40:30;101706.81;;;1.20;90.05
5753;BME280;2901;42.140;24.760;2024-01-30T05:42:56;101703.75;;;1.13;90.34
5753;BME280;2901;42.140;24.760;2024-01-30T05:45:23;101712.03;;;1.22;90.81
5753;BME280;2901;42.140;24.760;2024-01-30T05:47:49;101713.59;;;1.20;90.35
5753;BME280;2901;42.140;24.760;2024-01-30T05:50:14;101724.34;;;1.16;90.40
5753;BME280;2901;42.140;24.760;2024-01-30T05:52:40;101719.13;;;1.01;90.84
5753;BME280;2901;42.140;24.760;2024-01-30T05:55:06;101719.63;;;0.95;91.65
5753;BME280;2901;42.140;24.760;2024-01-30T05:57:31;101720.69;;;0.99;91.79
5753;BME280;2901;42.140;24.760;2024-01-30T05:59:57;101715.00;;;1.03;91.36
5753;BME280;2901;42.140;24.760;2024-01-30T06:02:22;101711.78;;;1.05;91.28
5753;BME280;2901;42.140;24.760;2024-01-30T06:04:47;101717.13;;;1.09;91.10
5753;BME280;2901;42.140;24.760;2024-01-30T06:07:13;101716.31;;;1.10;91.04
5753;BME280;2901;42.140;24.760;2024-01-30T06:09:38;101720.16;;;1.16;90.94
5753;BME280;2901;42.140;24.760;2024-01-30T06:12:05;101710.44;;;1.11;91.52
5753;BME280;2901;42.140;24.760;2024-01-30T06:14:30;101719.56;;;1.20;91.36
5753;BME280;2901;42.140;24.760;2024-01-30T06:16:56;101722.25;;;1.22;91.29
5753;BME280;2901;42.140;24.760;2024-01-30T06:19:21;101720.38;;;1.32;90.48
5753;BME280;2901;42.140;24.760;2024-01-30T06:21:46;101721.88;;;1.42;90.09
5753;BME280;2901;42.140;24.760;2024-01-30T06:24:12;101727.88;;;1.55;90.26
5753;BME280;2901;42.140;24.760;2024-01-30T06:26:37;101728.97;;;1.59;89.25
5753;BME280;2901;42.140;24.760;2024-01-30T06:29:03;101723.56;;;1.54;88.93
5753;BME280;2901;42.140;24.760;2024-01-30T06:31:28;101726.00;;;1.53;88.88
5753;BME280;2901;42.140;24.760;2024-01-30T06:33:53;101727.41;;;1.48;89.37
5753;BME280;2901;42.140;24.760;2024-01-30T06:36:19;101735.25;;;1.51;90.07
5753;BME280;2901;42.140;24.760;2024-01-30T06:38:44;101737.38;;;1.45;90.48
5753;BME280;2901;42.140;24.760;2024-01-30T06:41:10;101729.06;;;1.47;90.46
5753;BME280;2901;42.140;24.760;2024-01-30T06:43:35;101723.44;;;1.40;91.18
5753;BME280;2901;42.140;24.760;2024-01-30T06:46:00;101726.59;;;1.49;91.54
5753;BME280;2901;42.140;24.760;2024-01-30T06:48:26;101731.22;;;1.41;91.83
5753;BME280;2901;42.140;24.760;2024-01-30T06:50:54;101727.97;;;1.44;91.70
5753;BME280;2901;42.140;24.760;2024-01-30T06:53:19;101731.22;;;1.41;91.65
5753;BME280;2901;42.140;24.760;2024-01-30T06:55:45;101727.38;;;1.35;92.18
5753;BME280;2901;42.140;24.760;2024-01-30T06:58:10;101734.41;;;1.26;92.63
5753;BME280;2901;42.140;24.760;2024-01-30T07:00:36;101731.28;;;1.30;92.66
5753;BME280;2901;42.140;24.760;2024-01-30T07:03:01;101737.34;;;1.32;92.44
5753;BME280;2901;42.140;24.760;2024-01-30T07:05:27;101716.66;;;1.27;92.11
5753;BME280;2901;42.140;24.760;2024-01-30T07:07:52;101748.75;;;1.37;92.42
5753;BME280;2901;42.140;24.760;2024-01-30T07:10:17;101719.38;;;1.17;92.89
5753;BME280;2901;42.140;24.760;2024-01-30T07:12:43;101742.16;;;1.27;92.87
5753;BME280;2901;42.140;24.760;2024-01-30T07:15:08;101738.03;;;1.29;92.41
5753;BME280;2901;42.140;24.760;2024-01-30T07:17:35;101743.47;;;1.34;92.90
5753;BME280;2901;42.140;24.760;2024-01-30T07:20:01;101725.41;;;1.31;92.26
5753;BME280;2901;42.140;24.760;2024-01-30T07:22:29;101727.84;;;1.42;92.04
5753;BME280;2901;42.140;24.760;2024-01-30T07:24:54;101729.94;;;1.48;91.09
5753;BME280;2901;42.140;24.760;2024-01-30T07:27:20;101735.72;;;1.58;90.56
5753;BME280;2901;42.140;24.760;2024-01-30T07:29:46;101740.75;;;1.70;89.45
5753;BME280;2901;42.140;24.760;2024-01-30T07:32:12;101742.13;;;1.78;88.87
5753;BME280;2901;42.140;24.760;2024-01-30T07:34:37;101745.47;;;1.90;88.45
5753;BME280;2901;42.140;24.760;2024-01-30T07:37:03;101737.50;;;1.99;87.77
5753;BME280;2901;42.140;24.760;2024-01-30T07:39:28;101739.97;;;2.11;86.60
5753;BME280;2901;42.140;24.760;2024-01-30T07:41:53;101745.25;;;2.27;86.53
5753;BME280;2901;42.140;24.760;2024-01-30T07:44:19;101740.13;;;2.40;85.37
5753;BME280;2901;42.140;24.760;2024-01-30T07:46:45;101744.72;;;2.45;84.02
5753;BME280;2901;42.140;24.760;2024-01-30T07:49:10;101750.78;;;2.47;83.33
5753;BME280;2901;42.140;24.760;2024-01-30T07:51:36;101749.31;;;2.51;83.16
5753;BME280;2901;42.140;24.760;2024-01-30T07:54:01;101740.63;;;2.62;82.95
5753;BME280;2901;42.140;24.760;2024-01-30T07:56:26;101721.19;;;2.51;82.49
5753;BME280;2901;42.140;24.760;2024-01-30T07:58:52;101739.03;;;2.36;82.57
5753;BME280;2901;42.140;24.760;2024-01-30T08:01:18;101746.59;;;2.35;83.49
5753;BME280;2901;42.140;24.760;2024-01-30T08:03:44;101745.53;;;2.18;83.89
5753;BME280;2901;42.140;24.760;2024-01-30T08:06:09;101739.16;;;2.25;84.03
5753;BME280;2901;42.140;24.760;2024-01-30T08:08:35;101740.22;;;2.28;83.76
5753;BME280;2901;42.140;24.760;2024-01-30T08:11:00;101742.31;;;2.34;83.23
5753;BME280;2901;42.140;24.760;2024-01-30T08:13:26;101739.72;;;2.47;82.17
5753;BME280;2901;42.140;24.760;2024-01-30T08:15:51;101732.41;;;2.53;81.93
5753;BME280;2901;42.140;24.760;2024-01-30T08:18:17;101730.31;;;2.60;81.35
5753;BME280;2901;42.140;24.760;2024-01-30T08:20:42;101732.91;;;2.75;80.12
5753;BME280;2901;42.140;24.760;2024-01-30T08:23:07;101720.03;;;2.74;80.15
5753;BME280;2901;42.140;24.760;2024-01-30T08:25:33;101721.25;;;2.66;79.72
5753;BME280;2901;42.140;24.760;2024-01-30T08:27:58;101738.25;;;2.65;79.37
5753;BME280;2901;42.140;24.760;2024-01-30T08:30:23;101734.94;;;2.66;78.31
5753;BME280;2901;42.140;24.760;2024-01-30T08:32:49;101734.88;;;2.79;77.75
5753;BME280;2901;42.140;24.760;2024-01-30T08:35:14;101738.69;;;2.86;76.30
5753;BME280;2901;42.140;24.760;2024-01-30T08:37:41;101741.69;;;2.93;76.64
5753;BME280;2901;42.140;24.760;2024-01-30T08:40:07;101733.22;;;2.80;76.09
5753;BME280;2901;42.140;24.760;2024-01-30T08:42:33;101736.03;;;2.84;76.25
5753;BME280;2901;42.140;24.760;2024-01-30T08:44:59;101732.34;;;2.94;75.72
5753;BME280;2901;42.140;24.760;2024-01-30T08:47:24;101737.81;;;3.00;75.30
5753;BME280;2901;42.140;24.760;2024-01-30T08:49:50;101738.88;;;3.03;73.53
5753;BME280;2901;42.140;24.760;2024-01-30T08:52:16;101736.78;;;3.11;72.36
5753;BME280;2901;42.140;24.760;2024-01-30T08:54:41;101734.50;;;3.16;72.83
5753;BME280;2901;42.140;24.760;2024-01-30T08:57:06;101733.13;;;3.35;71.82
5753;BME280;2901;42.140;24.760;2024-01-30T08:59:32;101731.97;;;3.45;70.33
5753;BME280;2901;42.140;24.760;2024-01-30T09:01:58;101731.88;;;3.58;69.90
5753;BME280;2901;42.140;24.760;2024-01-30T09:04:24;101734.94;;;3.67;68.79
5753;BME280;2901;42.140;24.760;2024-01-30T09:06:50;101735.22;;;3.72;67.77
5753;BME280;2901;42.140;24.760;2024-01-30T09:09:15;101735.28;;;3.73;67.70
5753;BME280;2901;42.140;24.760;2024-01-30T09:11:41;101743.69;;;3.71;67.21
5753;BME280;2901;42.140;24.760;2024-01-30T09:14:06;101739.19;;;3.81;66.63
5753;BME280;2901;42.140;24.760;2024-01-30T09:16:32;101732.28;;;3.80;65.92
5753;BME280;2901;42.140;24.760;2024-01-30T09:18:57;101720.97;;;3.77;65.97
5753;BME280;2901;42.140;24.760;2024-01-30T09:21:23;101722.03;;;3.80;66.67
5753;BME280;2901;42.140;24.760;2024-01-30T09:23:48;101723.81;;;3.81;67.12
5753;BME280;2901;42.140;24.760;2024-01-30T09:26:14;101715.38;;;3.98;66.09
5753;BME280;2901;42.140;24.760;2024-01-30T09:28:39;101715.88;;;4.07;66.07
5753;BME280;2901;42.140;24.760;2024-01-30T09:31:13;101712.38;;;4.22;66.26
5753;BME280;2901;42.140;24.760;2024-01-30T09:33:38;101708.88;;;4.36;65.51
5753;BME280;2901;42.140;24.760;2024-01-30T09:36:07;101706.00;;;4.46;63.60
5753;BME280;2901;42.140;24.760;2024-01-30T09:38:33;101692.53;;;4.34;62.88
5753;BME280;2901;42.140;24.760;2024-01-30T09:41:00;101700.94;;;4.31;64.17
5753;BME280;2901;42.140;24.760;2024-01-30T09:43:32;101691.25;;;4.42;64.07
5753;BME280;2901;42.140;24.760;2024-01-30T09:45:59;101692.59;;;4.51;63.77
5753;BME280;2901;42.140;24.760;2024-01-30T09:48:25;101693.19;;;4.62;62.83
5753;BME280;2901;42.140;24.760;2024-01-30T09:50:52;101694.16;;;4.64;62.91
5753;BME280;2901;42.140;24.760;2024-01-30T09:53:19;101677.72;;;4.77;62.45
5753;BME280;2901;42.140;24.760;2024-01-30T09:55:45;101688.75;;;4.92;61.51
5753;BME280;2901;42.140;24.760;2024-01-30T09:58:12;101678.84;;;5.15;60.90
5753;BME280;2901;42.140;24.760;2024-01-30T10:00:37;101687.63;;;5.03;59.58
5753;BME280;2901;42.140;24.760;2024-01-30T10:03:03;101683.22;;;5.00;60.96
5753;BME280;2901;42.140;24.760;2024-01-30T10:05:31;101681.25;;;5.12;60.71
5753;BME280;2901;42.140;24.760;2024-01-30T10:07:59;101687.75;;;5.22;59.91
5753;BME280;2901;42.140;24.760;2024-01-30T10:10:24;101687.41;;;5.32;59.66
5753;BME280;2901;42.140;24.760;2024-01-30T10:12:49;101679.72;;;5.50;59.14
5753;BME280;2901;42.140;24.760;2024-01-30T10:15:15;101692.38;;;5.47;57.78
5753;BME280;2901;42.140;24.760;2024-01-30T10:17:42;101684.88;;;5.16;56.75
5753;BME280;2901;42.140;24.760;2024-01-30T10:20:08;101682.38;;;5.17;58.48
5753;BME280;2901;42.140;24.760;2024-01-30T10:22:34;101691.84;;;5.18;57.98
5753;BME280;2901;42.140;24.760;2024-01-30T10:25:00;101680.28;;;5.10;58.42
5753;BME280;2901;42.140;24.760;2024-01-30T10:27:28;101680.38;;;5.12;57.95
5753;BME280;2901;42.140;24.760;2024-01-30T10:29:55;101667.28;;;5.23;58.10
5753;BME280;2901;42.140;24.760;2024-01-30T10:32:21;101672.38;;;5.40;57.50
5753;BME280;2901;42.140;24.760;2024-01-30T10:34:47;101676.75;;;5.60;55.82
5753;BME280;2901;42.140;24.760;2024-01-30T10:37:12;101666.13;;;5.70;54.31
5753;BME280;2901;42.140;24.760;2024-01-30T10:39:41;101667.19;;;5.91;54.92
5753;BME280;2901;42.140;24.760;2024-01-30T10:42:13;101660.84;;;6.02;54.23
5753;BME280;2901;42.140;24.760;2024-01-30T10:45:00;101657.53;;;6.05;54.98
5753;BME280;2901;42.140;24.760;2024-01-30T10:47:29;101663.19;;;6.35;54.45
5753;BME280;2901;42.140;24.760;2024-01-30T10:49:55;101660.75;;;6.57;53.00
5753;BME280;2901;42.140;24.760;2024-01-30T10:52:23;101665.91;;;6.76;50.68
5753;BME280;2901;42.140;24.760;2024-01-30T10:54:51;101657.63;;;6.83;50.41
5753;BME280;2901;42.140;24.760;2024-01-30T10:57:17;101648.69;;;6.94;49.74
5753;BME280;2901;42.140;24.760;2024-01-30T10:59:43;101652.53;;;7.04;48.15
5753;BME280;2901;42.140;24.760;2024-01-30T11:02:10;101648.69;;;7.15;48.35
5753;BME280;2901;42.140;24.760;2024-01-30T11:04:41;101649.75;;;7.20;48.13
5753;BME280;2901;42.140;24.760;2024-01-30T11:07:19;101644.34;;;7.35;48.25
5753;BME280;2901;42.140;24.760;2024-01-30T11:09:53;101643.97;;;7.46;47.15
5753;BME280;2901;42.140;24.760;2024-01-30T11:12:25;101632.56;;;7.62;47.19
5753;BME280;2901;42.140;24.760;2024-01-30T11:15:08;101638.19;;;7.74;46.35
5753;BME280;2901;42.140;24.760;2024-01-30T11:20:30;101636.47;;;7.95;45.98
5753;BME280;2901;42.140;24.760;2024-01-30T11:22:57;101635.19;;;8.06;45.54
5753;BME280;2901;42.140;24.760;2024-01-30T11:25:23;101632.88;;;8.60;44.10
5753;BME280;2901;42.140;24.760;2024-01-30T11:27:51;101629.91;;;8.73;43.53
5753;BME280;2901;42.140;24.760;2024-01-30T11:30:25;101616.59;;;9.11;43.25
5753;BME280;2901;42.140;24.760;2024-01-30T11:35:25;101606.75;;;8.76;42.47
5753;BME280;2901;42.140;24.760;2024-01-30T11:37:51;101609.88;;;8.66;43.22
5753;BME280;2901;42.140;24.760;2024-01-30T11:40:16;101597.59;;;8.84;43.34
5753;BME280;2901;42.140;24.760;2024-01-30T11:42:42;101600.75;;;8.28;42.96
5753;BME280;2901;42.140;24.760;2024-01-30T11:45:08;101602.00;;;7.93;43.56
5753;BME280;2901;42.140;24.760;2024-01-30T11:47:37;101591.44;;;7.87;44.66
5753;BME280;2901;42.140;24.760;2024-01-30T11:50:04;101597.19;;;8.02;44.50
5753;BME280;2901;42.140;24.760;2024-01-30T11:52:33;101581.72;;;8.26;44.26
5753;BME280;2901;42.140;24.760;2024-01-30T11:54:59;101588.16;;;8.13;43.35
5753;BME280;2901;42.140;24.760;2024-01-30T11:57:26;101585.19;;;8.26;42.78
5753;BME280;2901;42.140;24.760;2024-01-30T11:59:52;101581.88;;;8.29;42.41
5753;BME280;2901;42.140;24.760;2024-01-30T12:02:17;101580.44;;;8.15;43.00
5753;BME280;2901;42.140;24.760;2024-01-30T12:04:43;101572.03;;;8.20;42.49
5753;BME280;2901;42.140;24.760;2024-01-30T12:07:08;101575.03;;;7.85;42.92
5753;BME280;2901;42.140;24.760;2024-01-30T12:09:33;101571.91;;;7.71;43.54
5753;BME280;2901;42.140;24.760;2024-01-30T12:11:59;101565.28;;;7.78;44.56
5753;BME280;2901;42.140;24.760;2024-01-30T12:14:25;101558.38;;;7.99;43.85
5753;BME280;2901;42.140;24.760;2024-01-30T12:16:51;101559.53;;;8.29;43.49
5753;BME280;2901;42.140;24.760;2024-01-30T12:19:26;101545.28;;;8.41;42.31
5753;BME280;2901;42.140;24.760;2024-01-30T12:21:57;101547.34;;;8.51;41.48
5753;BME280;2901;42.140;24.760;2024-01-30T12:24:27;101531.75;;;8.48;41.83
5753;BME280;2901;42.140;24.760;2024-01-30T12:26:57;101531.97;;;8.54;42.09
5753;BME280;2901;42.140;24.760;2024-01-30T12:29:22;101529.59;;;8.60;42.75
5753;BME280;2901;42.140;24.760;2024-01-30T12:31:48;101522.97;;;8.68;41.85
5753;BME280;2901;42.140;24.760;2024-01-30T12:34:14;101524.44;;;8.85;41.74
5753;BME280;2901;42.140;24.760;2024-01-30T12:36:42;101518.84;;;8.98;41.40
5753;BME280;2901;42.140;24.760;2024-01-30T12:39:11;101527.75;;;9.08;40.95
5753;BME280;2901;42.140;24.760;2024-01-30T12:41:37;101524.03;;;9.26;40.99
5753;BME280;2901;42.140;24.760;2024-01-30T12:44:02;101529.78;;;9.45;40.36
5753;BME280;2901;42.140;24.760;2024-01-30T12:46:28;101521.22;;;9.75;39.47
5753;BME280;2901;42.140;24.760;2024-01-30T12:48:54;101514.63;;;9.57;39.88
5753;BME280;2901;42.140;24.760;2024-01-30T12:51:19;101522.31;;;9.27;39.55
5753;BME280;2901;42.140;24.760;2024-01-30T12:53:45;101525.34;;;9.41;39.82
5753;BME280;2901;42.140;24.760;2024-01-30T12:56:12;101515.44;;;9.27;40.47
5753;BME280;2901;42.140;24.760;2024-01-30T12:58:38;101510.97;;;9.50;39.94
5753;BME280;2901;42.140;24.760;2024-01-30T13:01:03;101508.84;;;9.65;39.59
5753;BME280;2901;42.140;24.760;2024-01-30T13:03:29;101509.53;;;9.60;39.45
5753;BME280;2901;42.140;24.760;2024-01-30T13:05:55;101513.47;;;9.47;40.00
5753;BME280;2901;42.140;24.760;2024-01-30T13:08:21;101519.22;;;9.38;39.97